KMOT

Minot International Airport

Minot, North Dakota, USA
METAR KMOT 181454Z 22015KT 10SM CLR 12/01 A3001 RMK AO2 SLP168 T01170011 56012 $
Observed Flight Rules
Oct-18 @ 14:54 UTC (an hour ago) Visual Flight Rules
Wind Visibility Clouds
220° at 15 knots 10 miles
  • Clear skies
Temperatures Readings
Current 12°C / 54°F
Dewpoint 1°C / 34°F
Humidity 47%
Altimeter 30.01" Hg
Pressure 1016.8 hPa
Elevation 519
METAR KMOT 181454Z 22015KT 10SM CLR 12/01 A3001 RMK AO2 SLP168 T01170011 56012 $
Observed Flight Rules
Oct-18 @ 14:54 UTC
(an hour ago)
VFR
Wind Visibility
220° at 15 knots 10 miles
Clouds
  • Clear skies
Temperature Dewpoint
12°C / 54°F 1°C / 34°F
Humidity Altimeter Pressure
47% 30.01" Hg 1016.8 hPa